createdAt,value
2018-07-01T00:00:01.915Z,1.17
2018-07-01T00:02:29.401Z,0.90
2018-07-01T00:04:56.988Z,1.43
2018-07-01T00:07:24.526Z,1.10
2018-07-01T00:09:51.993Z,0.93
2018-07-01T00:12:19.502Z,1.23
2018-07-01T00:14:47.023Z,1.10
2018-07-01T00:17:14.626Z,1.40
2018-07-01T00:19:42.218Z,1.27
2018-07-01T00:22:09.703Z,1.10
2018-07-01T00:24:37.228Z,1.00
2018-07-01T00:27:04.751Z,1.27
2018-07-01T00:29:32.289Z,1.50
2018-07-01T00:31:59.757Z,1.20
2018-07-01T00:34:27.308Z,1.57
2018-07-01T00:36:55.095Z,1.23
2018-07-01T00:39:22.634Z,1.30
2018-07-01T00:41:50.158Z,1.40
2018-07-01T00:44:17.653Z,0.97
2018-07-01T00:46:45.128Z,1.20
2018-07-01T00:49:12.567Z,1.23
2018-07-01T00:51:39.997Z,1.43
2018-07-01T00:54:07.630Z,1.40
2018-07-01T00:56:35.149Z,1.37
2018-07-01T00:59:03.101Z,1.40
2018-07-01T01:01:30.630Z,1.10
2018-07-01T01:03:58.221Z,1.20
2018-07-01T01:06:25.705Z,1.20
2018-07-01T01:08:53.264Z,1.20
2018-07-01T01:11:20.634Z,1.40
2018-07-01T01:13:48.187Z,1.33
2018-07-01T01:16:15.686Z,1.30
2018-07-01T01:18:43.081Z,1.40
2018-07-01T01:21:10.517Z,1.03
2018-07-01T01:23:38.169Z,1.53
2018-07-01T01:26:05.641Z,0.90
2018-07-01T01:28:33.301Z,1.40
2018-07-01T01:31:00.756Z,1.10
2018-07-01T01:33:28.319Z,1.10
2018-07-01T01:35:55.834Z,1.70
2018-07-01T01:38:24.994Z,1.30
2018-07-01T01:40:56.119Z,1.00
2018-07-01T01:43:27.992Z,1.20
2018-07-01T01:46:00.870Z,1.30
2018-07-01T01:48:36.947Z,1.23
2018-07-01T01:52:14.143Z,1.20
2018-07-01T01:54:47.461Z,1.17
2018-07-01T01:57:28.046Z,1.23
2018-07-01T02:00:02.213Z,1.10
2018-07-01T02:02:35.383Z,1.30
2018-07-01T02:05:07.777Z,1.47
2018-07-01T02:07:39.561Z,1.20
2018-07-01T02:10:07.266Z,1.37
2018-07-01T02:12:34.780Z,1.07
2018-07-01T02:15:05.762Z,1.10
2018-07-01T02:17:35.766Z,1.20
2018-07-01T02:20:03.812Z,1.37
2018-07-01T02:22:50.723Z,1.50
2018-07-01T02:25:20.746Z,1.30
2018-07-01T02:27:48.612Z,1.50
2018-07-01T02:30:16.173Z,1.30
2018-07-01T02:32:44.110Z,1.50
2018-07-01T02:35:11.572Z,1.30
2018-07-01T02:37:39.022Z,1.30
2018-07-01T02:40:06.961Z,1.73
2018-07-01T02:42:34.715Z,1.37
2018-07-01T02:45:02.198Z,1.27
2018-07-01T02:47:29.742Z,1.20
2018-07-01T02:49:57.170Z,1.40
2018-07-01T02:52:24.873Z,1.37
2018-07-01T02:54:52.775Z,1.30
2018-07-01T02:57:20.195Z,1.40
2018-07-01T02:59:47.931Z,1.57
2018-07-01T03:02:15.480Z,1.53
2018-07-01T03:04:42.943Z,1.43
2018-07-01T03:07:10.439Z,1.80
2018-07-01T03:09:37.880Z,1.70
2018-07-01T03:12:05.434Z,1.00
2018-07-01T03:14:32.946Z,1.60
2018-07-01T03:17:00.588Z,1.23
2018-07-01T03:19:28.179Z,1.37
2018-07-01T03:21:55.681Z,1.40
2018-07-01T03:24:23.351Z,1.57
2018-07-01T03:26:50.893Z,1.40
2018-07-01T03:29:18.386Z,1.47
2018-07-01T03:31:45.892Z,1.57
2018-07-01T03:34:13.550Z,1.40
2018-07-01T03:36:40.959Z,1.27
2018-07-01T03:39:09.013Z,1.30
2018-07-01T03:41:36.491Z,1.13
2018-07-01T03:44:04.997Z,1.40
2018-07-01T03:46:32.457Z,1.10
2018-07-01T03:49:00.116Z,1.67
2018-07-01T03:51:27.762Z,1.30
2018-07-01T03:53:55.383Z,1.20
2018-07-01T03:56:22.822Z,1.20
2018-07-01T03:58:50.271Z,1.30
2018-07-01T04:01:17.739Z,1.20
2018-07-01T04:03:45.154Z,1.27
2018-07-01T04:06:12.638Z,1.20
2018-07-01T04:08:40.034Z,1.30
2018-07-01T04:11:07.711Z,1.03
2018-07-01T04:13:35.204Z,1.00
2018-07-01T04:16:03.075Z,1.23
2018-07-01T04:18:31.096Z,1.37
2018-07-01T04:20:58.573Z,1.50
2018-07-01T04:23:26.075Z,1.00
2018-07-01T04:25:53.617Z,1.20
2018-07-01T04:28:21.242Z,1.10
2018-07-01T04:30:48.845Z,1.17
2018-07-01T04:33:16.311Z,1.27
2018-07-01T04:35:43.751Z,1.70
2018-07-01T04:38:11.160Z,1.30
2018-07-01T04:40:38.745Z,1.40
2018-07-01T04:43:06.158Z,1.20
2018-07-01T04:45:33.621Z,1.10
2018-07-01T04:48:01.163Z,1.07
2018-07-01T04:50:28.626Z,1.10
2018-07-01T04:52:56.050Z,0.90
2018-07-01T04:55:23.713Z,1.10
2018-07-01T04:57:50.992Z,1.10
2018-07-01T05:00:18.454Z,1.10
2018-07-01T05:02:46.042Z,1.00
2018-07-01T05:05:13.512Z,0.97
2018-07-01T05:07:41.014Z,1.10
2018-07-01T05:10:08.520Z,62.80
2018-07-01T05:12:36.208Z,81.53
2018-07-01T05:15:03.641Z,18.77
2018-07-01T05:17:31.109Z,9.70
2018-07-01T05:19:59.595Z,5.40
2018-07-01T05:22:27.145Z,2.57
2018-07-01T05:24:54.747Z,1.97
2018-07-01T05:27:22.366Z,1.30
2018-07-01T05:29:49.875Z,1.37
2018-07-01T05:32:17.330Z,14.00
2018-07-01T05:34:44.833Z,42.53
2018-07-01T05:37:12.334Z,17.83
2018-07-01T05:39:39.863Z,8.30
2018-07-01T05:42:07.397Z,4.70
2018-07-01T05:44:35.019Z,3.07
2018-07-01T05:47:02.794Z,1.70
2018-07-01T05:49:30.525Z,1.10
2018-07-01T05:51:57.992Z,1.30
2018-07-01T05:54:25.462Z,1.20
2018-07-01T05:56:52.977Z,0.87
2018-07-01T05:59:20.543Z,1.00
2018-07-01T06:01:48.038Z,6.80
2018-07-01T06:04:15.529Z,27.00
2018-07-01T06:06:42.970Z,12.60
2018-07-01T06:09:11.425Z,7.13
2018-07-01T06:11:39.411Z,3.90
2018-07-01T06:14:06.968Z,3.00
2018-07-01T06:16:34.518Z,1.43
2018-07-01T06:19:02.059Z,4.80
2018-07-01T06:21:29.578Z,23.07
2018-07-01T06:23:57.018Z,21.17
2018-07-01T06:26:24.479Z,7.77
2018-07-01T06:28:52.022Z,6.00
2018-07-01T06:31:19.509Z,14.47
2018-07-01T06:33:46.927Z,15.43
2018-07-01T06:36:14.336Z,7.00
2018-07-01T06:38:41.826Z,3.50
2018-07-01T06:41:09.385Z,1.63
2018-07-01T06:43:36.866Z,1.23
2018-07-01T06:46:04.884Z,1.03
2018-07-01T06:48:32.405Z,1.30
2018-07-01T06:50:59.849Z,1.70
2018-07-01T06:53:27.286Z,2.27
2018-07-01T06:55:54.777Z,3.10
2018-07-01T06:58:22.465Z,3.13
2018-07-01T07:00:49.903Z,3.70
2018-07-01T07:03:17.363Z,2.20
2018-07-01T07:05:44.831Z,2.27
2018-07-01T07:08:12.287Z,1.63
2018-07-01T07:10:39.847Z,1.50
2018-07-01T07:13:07.294Z,1.20
2018-07-01T07:15:34.755Z,4.60
2018-07-01T07:18:02.240Z,19.53
2018-07-01T07:20:29.910Z,11.60
2018-07-01T07:22:57.451Z,3.30
2018-07-01T07:25:24.945Z,1.93
2018-07-01T07:27:52.676Z,1.23
2018-07-01T07:30:20.233Z,0.97
2018-07-01T07:32:47.714Z,0.97
2018-07-01T07:35:15.223Z,0.80
2018-07-01T07:37:42.723Z,0.90
2018-07-01T07:40:10.218Z,0.90
2018-07-01T07:42:37.701Z,0.70
2018-07-01T07:45:05.247Z,1.33
2018-07-01T07:47:33.571Z,5.00
2018-07-01T07:50:01.082Z,24.40
2018-07-01T07:52:28.604Z,15.47
2018-07-01T07:54:56.035Z,7.30
2018-07-01T07:57:23.461Z,3.10
2018-07-01T07:59:50.974Z,1.30
2018-07-01T08:02:18.489Z,1.00
2018-07-01T08:04:46.030Z,1.00
2018-07-01T08:07:13.526Z,0.90
2018-07-01T08:09:41.223Z,0.90
2018-07-01T08:12:08.661Z,0.70
2018-07-01T08:14:36.143Z,5.80
2018-07-01T08:17:03.798Z,12.67
2018-07-01T08:19:31.247Z,5.90
2018-07-01T08:21:58.835Z,3.27
2018-07-01T08:24:27.216Z,2.30
2018-07-01T08:26:54.680Z,1.30
2018-07-01T08:29:22.279Z,6.73
2018-07-01T08:31:49.828Z,8.83
2018-07-01T08:34:17.331Z,8.17
2018-07-01T08:36:45.126Z,3.67
2018-07-01T08:39:12.743Z,1.80
2018-07-01T08:42:18.942Z,1.87
2018-07-01T08:44:46.413Z,6.77
2018-07-01T08:47:13.866Z,8.23
2018-07-01T08:49:41.515Z,3.63
2018-07-01T08:52:08.985Z,1.80
2018-07-01T08:54:36.488Z,2.17
2018-07-01T08:57:04.051Z,1.00
2018-07-01T08:59:31.727Z,0.90
2018-07-01T09:01:59.406Z,1.67
2018-07-01T09:04:26.890Z,0.80
2018-07-01T09:06:54.359Z,0.80
2018-07-01T09:09:22.055Z,4.00
2018-07-01T09:11:49.562Z,10.70
2018-07-01T09:14:17.069Z,4.43
2018-07-01T09:16:44.707Z,2.67
2018-07-01T09:19:12.184Z,1.90
2018-07-01T09:21:39.649Z,5.03
2018-07-01T09:24:07.141Z,8.27
2018-07-01T09:26:34.599Z,5.37
2018-07-01T09:29:02.257Z,2.50
2018-07-01T09:31:29.746Z,1.63
2018-07-01T09:33:57.236Z,1.60
2018-07-01T09:36:24.822Z,1.27
2018-07-01T09:38:52.314Z,1.10
2018-07-01T09:41:19.813Z,1.00
2018-07-01T09:43:47.311Z,1.00
2018-07-01T09:46:14.895Z,0.70
2018-07-01T09:48:42.344Z,0.70
2018-07-01T09:51:10.031Z,0.90
2018-07-01T09:53:37.507Z,1.10
2018-07-01T09:56:05.178Z,0.80
2018-07-01T09:58:32.735Z,0.90
2018-07-01T10:01:00.243Z,1.20
2018-07-01T10:03:27.814Z,0.80
2018-07-01T10:05:55.398Z,0.70
2018-07-01T10:08:22.855Z,1.00
2018-07-01T10:10:50.475Z,0.80
2018-07-01T10:13:17.966Z,0.87
2018-07-01T10:15:45.484Z,0.77
2018-07-01T10:18:12.891Z,0.90
2018-07-01T10:20:40.333Z,0.50
2018-07-01T10:23:07.794Z,0.80
2018-07-01T10:25:35.246Z,1.30
2018-07-01T10:28:02.976Z,0.90
2018-07-01T10:30:30.477Z,0.70
2018-07-01T10:32:58.032Z,0.63
2018-07-01T10:35:25.749Z,0.90
2018-07-01T10:37:53.420Z,5.27
2018-07-01T10:40:21.061Z,6.73
2018-07-01T10:42:48.869Z,7.00
2018-07-01T10:45:16.740Z,3.07
2018-07-01T10:47:44.338Z,2.50
2018-07-01T10:50:11.756Z,1.47
2018-07-01T10:52:39.372Z,1.63
2018-07-01T10:55:06.965Z,1.20
2018-07-01T10:57:34.443Z,4.07
2018-07-01T11:00:02.074Z,4.37
2018-07-01T11:02:29.622Z,3.10
2018-07-01T11:04:57.203Z,2.00
2018-07-01T11:07:24.794Z,1.90
2018-07-01T11:09:52.283Z,1.43
2018-07-01T11:12:19.780Z,1.10
2018-07-01T11:14:47.230Z,1.83
2018-07-01T11:17:14.655Z,0.80
2018-07-01T11:19:42.165Z,0.73
2018-07-01T11:22:09.700Z,0.70
2018-07-01T11:24:37.179Z,0.70
2018-07-01T11:27:04.804Z,0.60
2018-07-01T11:29:32.246Z,0.70
2018-07-01T11:32:00.649Z,6.23
2018-07-01T11:34:29.692Z,7.10
2018-07-01T11:36:57.334Z,5.47
2018-07-01T11:39:24.807Z,3.83
2018-07-01T11:41:52.262Z,3.47
2018-07-01T11:44:19.729Z,2.10
2018-07-01T11:46:47.225Z,2.00
2018-07-01T11:49:14.725Z,1.47
2018-07-01T11:51:42.310Z,0.80
2018-07-01T11:54:09.750Z,1.07
2018-07-01T11:56:37.268Z,1.77
2018-07-01T11:59:05.072Z,9.00
2018-07-01T12:01:32.644Z,8.03
2018-07-01T12:04:00.139Z,5.90
2018-07-01T12:06:27.687Z,5.67
2018-07-01T12:08:55.137Z,3.17
2018-07-01T12:11:22.755Z,1.53
2018-07-01T12:13:50.630Z,1.30
2018-07-01T12:16:18.120Z,1.27
2018-07-01T12:18:45.585Z,0.90
2018-07-01T12:21:13.077Z,0.80
2018-07-01T12:23:40.704Z,0.70
2018-07-01T12:26:08.139Z,0.70
2018-07-01T12:28:35.670Z,0.67
2018-07-01T12:31:03.436Z,0.90
2018-07-01T12:33:30.995Z,0.77
2018-07-01T12:35:58.490Z,0.70
2018-07-01T12:38:25.997Z,0.70
2018-07-01T12:40:53.470Z,0.90
2018-07-01T12:43:20.941Z,0.80
2018-07-01T12:45:48.482Z,0.83
2018-07-01T12:48:16.087Z,0.70
2018-07-01T12:50:43.618Z,0.80
2018-07-01T12:53:11.054Z,0.80
2018-07-01T12:55:38.712Z,0.90
2018-07-01T12:58:06.331Z,0.80
2018-07-01T13:00:33.994Z,0.77
2018-07-01T13:03:01.378Z,0.60
2018-07-01T13:05:29.169Z,0.90
2018-07-01T13:07:56.605Z,0.87
2018-07-01T13:10:24.215Z,0.70
2018-07-01T13:12:51.686Z,1.47
2018-07-01T13:15:19.117Z,0.80
2018-07-01T13:17:46.589Z,0.70
2018-07-01T13:20:14.208Z,0.80
2018-07-01T13:22:41.644Z,0.90
2018-07-01T13:25:09.219Z,1.00
2018-07-01T13:27:36.615Z,0.80
2018-07-01T13:30:04.759Z,0.77
2018-07-01T13:32:32.371Z,0.90
2018-07-01T13:34:59.882Z,0.70
2018-07-01T13:37:27.340Z,0.60
2018-07-01T13:39:54.950Z,0.90
2018-07-01T13:42:22.381Z,0.70
2018-07-01T13:44:49.866Z,1.20
2018-07-01T13:47:17.405Z,0.90
2018-07-01T13:49:45.000Z,1.10
2018-07-01T13:52:12.533Z,0.83
2018-07-01T13:54:39.983Z,0.70
2018-07-01T13:57:07.603Z,0.87
2018-07-01T13:59:35.099Z,1.30
2018-07-01T14:02:03.401Z,0.90
2018-07-01T14:04:30.911Z,0.90
2018-07-01T14:06:58.427Z,0.90
2018-07-01T14:09:25.927Z,0.93
2018-07-01T14:11:53.415Z,0.90
2018-07-01T14:14:20.854Z,1.30
2018-07-01T14:16:48.371Z,1.10
2018-07-01T14:19:15.815Z,0.90
2018-07-01T14:21:43.302Z,1.10
2018-07-01T14:24:10.762Z,1.10
2018-07-01T14:26:38.289Z,0.90
2018-07-01T14:29:05.755Z,1.40
2018-07-01T14:31:33.197Z,1.60
2018-07-01T14:34:00.754Z,1.40
2018-07-01T14:36:28.300Z,1.30
2018-07-01T14:38:55.812Z,1.40
2018-07-01T14:41:23.409Z,1.30
2018-07-01T14:43:50.934Z,1.27
2018-07-01T14:46:18.402Z,1.13
2018-07-01T14:48:45.833Z,0.70
2018-07-01T14:51:13.303Z,1.10
2018-07-01T14:53:40.852Z,0.87
2018-07-01T14:56:08.385Z,0.90
2018-07-01T14:58:35.825Z,0.90
2018-07-01T15:01:03.358Z,0.83
2018-07-01T15:03:30.847Z,0.90
2018-07-01T15:06:03.259Z,0.80
2018-07-01T15:08:30.758Z,0.90
2018-07-01T15:10:58.196Z,0.60
2018-07-01T15:13:25.655Z,0.80
2018-07-01T15:15:53.302Z,0.80
2018-07-01T15:18:20.839Z,0.80
2018-07-01T15:20:48.281Z,0.80
2018-07-01T15:23:15.806Z,0.83
2018-07-01T15:25:43.278Z,0.90
2018-07-01T15:28:10.812Z,0.80
2018-07-01T15:30:38.322Z,0.83
2018-07-01T15:33:05.765Z,0.90
2018-07-01T15:35:33.373Z,0.77
2018-07-01T15:38:02.914Z,0.90
2018-07-01T15:40:30.361Z,0.90
2018-07-01T15:42:57.893Z,0.90
2018-07-01T15:45:25.389Z,0.90
2018-07-01T15:47:52.839Z,1.03
2018-07-01T15:50:20.432Z,1.00
2018-07-01T15:52:47.904Z,0.70
2018-07-01T15:55:15.458Z,1.20
2018-07-01T15:57:42.934Z,0.80
2018-07-01T16:00:11.443Z,0.90
2018-07-01T16:02:38.942Z,0.90
2018-07-01T16:05:06.629Z,1.07
2018-07-01T16:07:34.130Z,0.80
2018-07-01T16:10:01.698Z,1.00
2018-07-01T16:12:29.121Z,0.90
2018-07-01T16:14:56.557Z,0.80
2018-07-01T16:17:24.015Z,0.73
2018-07-01T16:19:51.498Z,0.80
2018-07-01T16:22:19.128Z,0.80
2018-07-01T16:24:52.533Z,0.90
2018-07-01T16:27:26.878Z,0.70
2018-07-01T16:29:54.497Z,0.70
2018-07-01T16:32:22.111Z,0.87
2018-07-01T16:34:49.538Z,0.67
2018-07-01T16:37:17.039Z,0.70
2018-07-01T16:39:44.419Z,1.43
2018-07-01T16:42:11.871Z,0.80
2018-07-01T16:44:39.341Z,0.80
2018-07-01T16:47:06.801Z,0.83
2018-07-01T16:49:34.265Z,0.80
2018-07-01T16:52:01.654Z,0.77
2018-07-01T16:54:29.088Z,0.93
2018-07-01T16:56:56.574Z,0.93
2018-07-01T16:59:24.077Z,0.80
2018-07-01T17:01:51.496Z,0.80
2018-07-01T17:04:19.002Z,0.80
2018-07-01T17:06:46.477Z,0.90
2018-07-01T17:09:13.898Z,1.00
2018-07-01T17:11:41.430Z,1.07
2018-07-01T17:14:08.862Z,1.40
2018-07-01T17:16:36.550Z,1.10
2018-07-01T17:19:04.095Z,0.83
2018-07-01T17:21:31.521Z,1.20
2018-07-01T17:23:58.981Z,0.93
2018-07-01T17:26:26.525Z,1.10
2018-07-01T17:28:54.041Z,1.20
2018-07-01T17:32:25.037Z,1.03
2018-07-01T17:34:52.654Z,0.80
2018-07-01T17:37:20.259Z,0.90
2018-07-01T17:39:47.733Z,0.83
2018-07-01T17:42:15.219Z,0.70
2018-07-01T17:44:42.694Z,0.67
2018-07-01T17:47:10.096Z,1.10
2018-07-01T17:49:37.548Z,0.97
2018-07-01T17:52:05.379Z,1.53
2018-07-01T17:54:32.849Z,11.27
2018-07-01T17:57:00.273Z,9.33
2018-07-01T17:59:27.916Z,6.70
2018-07-01T18:01:55.575Z,3.27
2018-07-01T18:04:23.217Z,2.20
2018-07-01T18:06:51.165Z,1.73
2018-07-01T18:09:19.043Z,2.10
2018-07-01T18:11:46.817Z,1.50
2018-07-01T18:14:14.800Z,1.30
2018-07-01T18:16:42.677Z,1.37
2018-07-01T18:19:10.456Z,1.50
2018-07-01T18:21:52.999Z,1.07
2018-07-01T18:24:35.137Z,1.20
2018-07-01T18:26:34.259Z,1.43
2018-07-01T18:29:10.776Z,1.00
2018-07-01T18:31:30.620Z,1.20
2018-07-01T18:33:58.656Z,1.00
2018-07-01T18:36:26.438Z,0.87
2018-07-01T18:38:54.625Z,0.90
2018-07-01T18:41:22.401Z,1.10
2018-07-01T18:43:50.380Z,0.90
2018-07-01T18:46:18.259Z,0.73
2018-07-01T18:48:46.042Z,0.70
2018-07-01T18:53:41.810Z,0.70
2018-07-01T18:56:09.789Z,0.77
2018-07-01T18:58:37.671Z,0.83
2018-07-01T19:01:05.548Z,1.10
2018-07-01T19:03:33.548Z,1.03
2018-07-01T19:06:01.538Z,1.00
2018-07-01T19:08:29.938Z,1.00
2018-07-01T19:10:57.816Z,1.10
2018-07-01T19:13:25.694Z,1.60
2018-07-01T19:15:53.882Z,1.30
2018-07-01T19:18:21.863Z,1.40
2018-07-01T19:20:49.842Z,1.00
2018-07-01T19:23:17.822Z,1.00
2018-07-01T19:25:45.803Z,1.27
2018-07-01T19:28:13.580Z,1.20
2018-07-01T19:30:41.812Z,1.10
2018-07-01T19:33:09.749Z,0.90
2018-07-01T19:35:37.741Z,0.80
2018-07-01T19:38:05.709Z,1.17
2018-07-01T19:40:33.487Z,1.40
2018-07-01T19:43:01.449Z,0.93
2018-07-01T19:45:29.568Z,1.33
2018-07-01T19:47:57.641Z,68.27
2018-07-01T19:50:25.516Z,51.80
2018-07-01T19:52:53.496Z,24.10
2018-07-01T19:55:21.272Z,11.87
2018-07-01T19:57:49.195Z,5.77
2018-07-01T20:00:17.151Z,3.20
2018-07-01T20:02:45.012Z,1.90
2018-07-01T20:05:13.196Z,1.40
2018-07-01T20:07:41.074Z,1.40
2018-07-01T20:10:09.304Z,1.30
2018-07-01T20:12:37.346Z,1.30
2018-07-01T20:15:05.428Z,1.33
2018-07-01T20:17:33.416Z,1.53
2018-07-01T20:20:00.998Z,1.30
2018-07-01T20:22:28.624Z,1.07
2018-07-01T20:24:56.171Z,1.43
2018-07-01T20:27:23.890Z,1.03
2018-07-01T20:29:51.409Z,1.03
2018-07-01T20:32:18.929Z,1.17
2018-07-01T20:34:46.414Z,1.20
2018-07-01T20:37:14.264Z,1.10
2018-07-01T20:39:41.717Z,1.10
2018-07-01T20:42:09.422Z,1.50
2018-07-01T20:44:37.181Z,0.97
2018-07-01T20:47:04.984Z,1.13
2018-07-01T20:49:32.500Z,1.00
2018-07-01T20:52:00.049Z,0.83
2018-07-01T20:54:27.782Z,1.50
2018-07-01T20:56:55.273Z,1.50
2018-07-01T20:59:22.716Z,1.30
2018-07-01T21:01:50.275Z,1.40
2018-07-01T21:04:17.762Z,1.20
2018-07-01T21:06:45.353Z,1.30
2018-07-01T21:09:12.810Z,1.23
2018-07-01T21:11:40.654Z,1.10
2018-07-01T21:14:08.234Z,1.20
2018-07-01T21:16:35.709Z,1.30
2018-07-01T21:19:03.747Z,1.07
2018-07-01T21:21:31.245Z,1.20
2018-07-01T21:23:58.818Z,1.03
2018-07-01T21:26:26.298Z,1.00
2018-07-01T21:28:54.078Z,1.13
2018-07-01T21:31:21.669Z,1.07
2018-07-01T21:33:49.206Z,1.30
2018-07-01T21:36:16.677Z,1.43
2018-07-01T21:38:44.141Z,1.30
2018-07-01T21:41:11.647Z,1.10
2018-07-01T21:43:39.175Z,1.43
2018-07-01T21:46:06.722Z,1.23
2018-07-01T21:48:34.193Z,1.30
2018-07-01T21:51:01.680Z,1.37
2018-07-01T21:53:29.435Z,1.20
2018-07-01T21:55:56.979Z,1.23
2018-07-01T21:58:24.527Z,1.10
2018-07-01T22:00:52.006Z,1.20
2018-07-01T22:03:19.510Z,1.13
2018-07-01T22:05:46.917Z,1.20
2018-07-01T22:08:14.450Z,0.90
2018-07-01T22:10:55.031Z,0.93
2018-07-01T22:14:35.351Z,1.00
2018-07-01T22:17:03.673Z,1.23
2018-07-01T22:19:31.376Z,1.00
2018-07-01T22:21:59.318Z,0.93
2018-07-01T22:24:28.879Z,0.90
2018-07-01T22:26:56.510Z,1.30
2018-07-01T22:29:23.937Z,1.23
2018-07-01T22:31:51.377Z,1.20
2018-07-01T22:34:19.327Z,1.50
2018-07-01T22:36:47.326Z,1.00
2018-07-01T22:39:17.952Z,1.10
2018-07-01T22:41:46.047Z,0.80
2018-07-01T22:44:13.455Z,1.00
2018-07-01T22:46:41.695Z,1.00
2018-07-01T22:49:09.165Z,1.00
2018-07-01T22:51:36.562Z,1.20
2018-07-01T22:54:04.631Z,1.00
2018-07-01T22:56:32.586Z,1.20
2018-07-01T22:59:00.009Z,0.90
2018-07-01T23:01:27.513Z,1.00
2018-07-01T23:03:54.971Z,1.07
2018-07-01T23:06:22.381Z,0.90
2018-07-01T23:08:49.823Z,0.90
2018-07-01T23:11:17.471Z,1.10
2018-07-01T23:13:44.867Z,1.27
2018-07-01T23:16:12.335Z,1.30
2018-07-01T23:18:39.715Z,1.10
2018-07-01T23:21:07.181Z,1.20
2018-07-01T23:23:34.714Z,1.20
2018-07-01T23:26:02.146Z,1.10
2018-07-01T23:28:29.579Z,1.90
2018-07-01T23:30:57.050Z,1.70
2018-07-01T23:33:24.480Z,1.40
2018-07-01T23:35:51.886Z,1.83
2018-07-01T23:38:19.323Z,1.70
2018-07-01T23:40:46.839Z,1.53
2018-07-01T23:43:14.243Z,1.70
2018-07-01T23:45:41.742Z,2.00
2018-07-01T23:48:09.230Z,1.97
2018-07-01T23:50:36.722Z,2.00
2018-07-01T23:53:04.619Z,2.40
2018-07-01T23:55:38.298Z,2.80
2018-07-01T23:58:06.002Z,2.70
